Accueil
METAR-TAF:

METAR-TAF

Aéroports :

Aéroport de Karlsruhe-Baden-Baden

Baden-Baden, Allemagne

latitude: 48-46-43N, longitude: 008-04-47E, altitude: 124 m

Observation

Le bulletin a été fait il y a 15 minutes, à 06:50 UTC
Vent 7 kt de nord/nord-est
Température 2°C
Humidité 93%
Pression 1036 hPa
Visibilité: 5000 m
brume

METAR: EDSB 270650Z 03007KT 5000 BR NSC 02/01 Q1036

Heure: 08:05 (07:05 UTC)

Prévision

Le bulletin a été fait il y a 2 heures et 5 minutes, à 05:00 UTC
Prévision valable du 27 à 06 UTC au 28 à 06 UTC
Vent 10 kt de nord/nord-est
Visibilité 10 km ou plus
pas de nuages en-dessous de 1500 mètres et pas de cumulonimbus.
Probabilité 30% :
Temporairement
du 27 à 06 UTC au 27 à 08 UTC
Visibilité: 4000 m
brume
Temporairement
du 27 à 10 UTC au 27 à 17 UTC
Vent 15 kt de nord/nord-est avec des rafales jusqu'à 25 kt

TAF: EDSB 270500Z 2706/2806 03010KT CAVOK PROB30 TEMPO 2706/2708 4000 BR TEMPO 2710/2717 03015G25KT

Observations et prévisions météorologiques de plus de 4000 aéroports (messages METAR et TAF).

Les stations disponibles sont représentées par des disques jaunes et rouges sur la carte.

Passer la souris dessus pour voir le nom de la station.

Cliquer dessus pour voir les observations et prévisions météorologiques.

Pour changer de carte: cliquez sur les boutons verts avec une croix noire pour zoomer, sur le bouton vert avec un tiret pour effectuer un zoom arrière, ou sur les flèches vertes pour les cartes adjacentes.


METAR-TAF: